Time;durP1;ratioP1;P1;durP2;ratioP2;P2;SDS_P1;SDS_P2;PMS_P1;PMS_P2;Temp;Humidity;BMP_temperature;BMP_pressure;BME280_temperature;BME280_humidity;BME280_pressure;Samples;Min_cycle;Max_cycle;Signal;HPM_P1;HPM_P2
2023/12/21 04:00:45;;;;;;;13.93;3.90;;;9.50;99.90;;;;;;5807941;23;20050;-75
2023/12/21 04:03:11;;;;;;;21.52;4.30;;;9.50;99.90;;;;;;4975379;28;20490;-76
2023/12/21 04:05:38;;;;;;;18.63;4.70;;;9.50;99.90;;;;;;4976454;28;20129;-76
2023/12/21 04:08:05;;;;;;;19.20;4.30;;;9.50;99.90;;;;;;4976360;28;20042;-77
2023/12/21 04:10:30;;;;;;;19.63;3.97;;;9.50;99.90;;;;;;4973882;28;20049;-76
2023/12/21 04:12:56;;;;;;;13.13;3.17;;;9.50;99.90;;;;;;4956060;29;20386;-77
2023/12/21 04:15:22;;;;;;;19.92;4.45;;;9.50;99.90;;;;;;4956915;29;20636;-76
2023/12/21 04:17:47;;;;;;;16.45;4.32;;;9.50;99.90;;;;;;4957225;29;20126;-76
2023/12/21 04:20:13;;;;;;;15.25;4.45;;;9.50;99.90;;;;;;4955554;28;20043;-76
2023/12/21 04:22:39;;;;;;;18.00;3.95;;;9.50;99.90;;;;;;4955602;29;20089;-78
2023/12/21 04:25:04;;;;;;;11.00;2.88;;;9.50;99.90;;;;;;4955606;29;20415;-77
2023/12/21 04:27:30;;;;;;;13.35;3.50;;;9.50;99.90;;;;;;4955757;29;20467;-77
2023/12/21 04:29:56;;;;;;;13.07;3.45;;;9.50;99.90;;;;;;4955431;29;20479;-77
2023/12/21 04:32:21;;;;;;;21.33;4.47;;;9.50;99.90;;;;;;4955372;28;20035;-79
2023/12/21 04:34:47;;;;;;;19.33;4.25;;;9.50;99.90;;;;;;4956890;29;20035;-76
2023/12/21 04:37:12;;;;;;;13.85;3.53;;;9.50;99.90;;;;;;4955320;29;20081;-78
2023/12/21 04:39:38;;;;;;;14.13;3.70;;;9.60;99.90;;;;;;4955258;29;20043;-78
2023/12/21 04:42:04;;;;;;;12.73;3.00;;;9.50;99.90;;;;;;4954862;28;20043;-78
2023/12/21 04:44:30;;;;;;;11.07;3.80;;;9.60;99.90;;;;;;4955061;29;20047;-77
2023/12/21 04:46:55;;;;;;;14.00;3.40;;;9.60;99.90;;;;;;4956708;29;20364;-78
2023/12/21 04:49:24;;;;;;;19.95;3.92;;;9.70;99.90;;;;;;4955193;29;20097;-77
2023/12/21 04:51:49;;;;;;;13.43;3.08;;;9.70;99.90;;;;;;4955211;28;20047;-76
2023/12/21 04:54:15;;;;;;;16.23;3.00;;;9.70;99.90;;;;;;4956409;29;20043;-76
2023/12/21 04:56:42;;;;;;;11.70;3.60;;;9.80;99.90;;;;;;4954965;29;20043;-77
2023/12/21 04:59:08;;;;;;;16.83;3.17;;;9.80;99.90;;;;;;4955216;29;20134;-78
2023/12/21 05:01:33;;;;;;;12.50;3.15;;;9.80;99.90;;;;;;4954880;28;20109;-75
2023/12/21 05:04:02;;;;;;;17.33;3.65;;;9.80;99.90;;;;;;4955830;29;20483;-76
2023/12/21 05:06:28;;;;;;;14.73;2.70;;;9.80;99.90;;;;;;4938673;29;20035;-76
2023/12/21 05:08:54;;;;;;;14.63;3.35;;;9.80;99.90;;;;;;4954936;29;20039;-76
2023/12/21 05:11:20;;;;;;;17.02;3.35;;;9.80;99.90;;;;;;4954933;28;20452;-78
2023/12/21 05:13:46;;;;;;;8.38;2.45;;;9.90;99.90;;;;;;4955213;29;20039;-77
2023/12/21 05:16:12;;;;;;;12.38;2.50;;;9.80;99.90;;;;;;4955209;29;20431;-76
2023/12/21 05:18:37;;;;;;;10.43;3.28;;;9.90;99.90;;;;;;4956083;29;20039;-78
2023/12/21 05:21:06;;;;;;;13.60;2.90;;;9.90;99.90;;;;;;4954484;28;20042;-77
2023/12/21 05:23:32;;;;;;;10.07;2.40;;;9.90;99.90;;;;;;4954780;29;20074;-76
2023/12/21 05:25:57;;;;;;;12.98;2.28;;;10.00;99.90;;;;;;4954355;29;20450;-78
2023/12/21 05:28:23;;;;;;;13.90;2.85;;;10.00;99.90;;;;;;4954442;29;20043;-77
2023/12/21 05:30:51;;;;;;;13.82;2.53;;;10.00;99.90;;;;;;4938351;29;20043;-77
2023/12/21 05:33:16;;;;;;;9.70;2.20;;;10.00;99.90;;;;;;4954565;29;20487;-76
2023/12/21 05:35:42;;;;;;;11.57;2.25;;;10.00;99.90;;;;;;4955458;29;20089;-77
2023/12/21 05:38:08;;;;;;;19.15;3.35;;;10.00;99.90;;;;;;4955450;29;20043;-79
2023/12/21 05:40:34;;;;;;;8.68;2.05;;;9.90;99.90;;;;;;4955617;28;20039;-78
2023/12/21 05:42:59;;;;;;;17.30;2.25;;;10.00;99.90;;;;;;4955460;29;20040;-77
2023/12/21 05:45:25;;;;;;;14.57;2.65;;;10.00;99.90;;;;;;4955588;29;20047;-77
2023/12/21 05:47:51;;;;;;;12.88;2.65;;;9.90;99.90;;;;;;4954144;29;20035;-77
2023/12/21 05:50:16;;;;;;;11.93;2.30;;;9.90;99.90;;;;;;4954038;28;20040;-77
2023/12/21 05:52:42;;;;;;;14.10;4.30;;;9.90;99.90;;;;;;4954082;29;20142;-76
2023/12/21 05:55:14;;;;;;;5.45;1.98;;;10.00;99.90;;;;;;4953289;28;20122;-76
2023/12/21 05:57:40;;;;;;;17.02;2.45;;;10.00;99.90;;;;;;4954078;29;20483;-75
2023/12/21 06:00:06;;;;;;;9.52;1.90;;;10.00;99.90;;;;;;4954037;29;20051;-78
2023/12/21 06:02:32;;;;;;;9.18;2.30;;;10.00;99.90;;;;;;4953756;28;20051;-76
2023/12/21 06:04:58;;;;;;;8.75;2.60;;;9.90;99.90;;;;;;4955448;28;20087;-76
2023/12/21 06:07:23;;;;;;;12.20;2.65;;;9.90;99.90;;;;;;4954548;29;20078;-76
2023/12/21 06:09:50;;;;;;;10.07;2.28;;;10.00;99.90;;;;;;4953934;29;20528;-77
2023/12/21 06:12:15;;;;;;;13.73;2.72;;;10.00;99.90;;;;;;4955307;28;20098;-76
2023/12/21 06:14:42;;;;;;;17.90;2.95;;;10.00;99.90;;;;;;4954093;29;20423;-75
2023/12/21 06:17:09;;;;;;;17.00;2.72;;;10.00;99.90;;;;;;4955293;29;20043;-77
2023/12/21 06:19:35;;;;;;;9.20;2.88;;;10.10;99.90;;;;;;4954072;29;20153;-77
2023/12/21 06:22:01;;;;;;;9.15;2.50;;;10.00;99.90;;;;;;4953721;28;20384;-76
2023/12/21 06:24:26;;;;;;;5.80;1.98;;;10.10;99.90;;;;;;4953839;29;20047;-76
2023/12/21 06:26:52;;;;;;;16.83;3.10;;;10.10;99.90;;;;;;4954940;29;20388;-77
2023/12/21 06:29:18;;;;;;;13.18;2.70;;;10.10;99.90;;;;;;4953675;29;20039;-76
2023/12/21 06:31:43;;;;;;;11.15;2.92;;;10.10;99.90;;;;;;4954768;28;20126;-75
2023/12/21 06:34:09;;;;;;;17.17;2.17;;;10.00;99.90;;;;;;4955195;29;20047;-78
2023/12/21 06:36:34;;;;;;;6.13;2.10;;;10.00;99.90;;;;;;4954868;29;20055;-76
2023/12/21 06:39:00;;;;;;;10.63;2.10;;;10.00;99.90;;;;;;4953697;29;20075;-74
2023/12/21 06:41:27;;;;;;;11.27;2.20;;;9.90;99.90;;;;;;4955081;28;20094;-75
2023/12/21 06:43:52;;;;;;;10.88;2.28;;;9.90;99.90;;;;;;4955051;29;20039;-75
2023/12/21 06:46:20;;;;;;;9.15;1.98;;;9.90;99.90;;;;;;4937611;29;20451;-76
2023/12/21 06:48:45;;;;;;;11.30;2.58;;;9.90;99.90;;;;;;4953498;29;20055;-76
2023/12/21 06:51:12;;;;;;;12.90;2.70;;;9.90;99.90;;;;;;4953856;28;20039;-76
2023/12/21 06:53:39;;;;;;;7.45;2.53;;;9.90;99.90;;;;;;4953557;28;20570;-78
2023/12/21 06:56:05;;;;;;;12.90;2.63;;;9.80;99.90;;;;;;4955063;29;20039;-76
2023/12/21 06:58:32;;;;;;;13.32;2.63;;;9.90;99.90;;;;;;4954541;29;20070;-78
2023/12/21 07:00:58;;;;;;;9.65;2.30;;;9.80;99.90;;;;;;4953512;28;20062;-77
2023/12/21 07:03:24;;;;;;;10.45;2.50;;;9.70;99.90;;;;;;4953760;29;20503;-79
2023/12/21 07:05:52;;;;;;;9.38;2.40;;;9.70;99.90;;;;;;4954406;28;20495;-78
2023/12/21 07:08:18;;;;;;;12.50;2.03;;;9.70;99.90;;;;;;4956847;29;20071;-78
2023/12/21 07:10:44;;;;;;;16.08;2.03;;;9.60;99.90;;;;;;4957521;28;20134;-78
2023/12/21 07:13:11;;;;;;;7.28;2.22;;;9.70;99.90;;;;;;4957030;29;20088;-80
2023/12/21 07:15:37;;;;;;;9.65;2.47;;;9.70;99.90;;;;;;4956840;29;20051;-77
2023/12/21 07:18:03;;;;;;;11.88;2.80;;;9.70;99.90;;;;;;4956973;29;20059;-78
2023/12/21 07:20:30;;;;;;;11.68;2.50;;;9.60;99.90;;;;;;4958330;28;20051;-79
2023/12/21 07:22:56;;;;;;;15.57;2.78;;;9.70;99.90;;;;;;4957894;29;20082;-77
2023/12/21 07:25:22;;;;;;;11.30;2.75;;;9.60;99.90;;;;;;4957772;29;20044;-77
2023/12/21 07:27:48;;;;;;;9.68;2.80;;;9.60;99.90;;;;;;4956502;29;20036;-80
2023/12/21 07:30:14;;;;;;;11.55;2.42;;;9.70;99.90;;;;;;4958004;28;20442;-80
2023/12/21 07:32:39;;;;;;;16.85;2.70;;;9.60;99.90;;;;;;4956471;29;20127;-79
2023/12/21 07:35:06;;;;;;;8.68;2.10;;;9.60;99.90;;;;;;4957386;29;20446;-77
2023/12/21 07:37:31;;;;;;;9.00;2.58;;;9.60;99.90;;;;;;4956520;29;20053;-78
2023/12/21 07:39:57;;;;;;;9.75;3.15;;;9.70;99.90;;;;;;4956493;29;20130;-77
2023/12/21 07:42:23;;;;;;;11.80;3.55;;;9.60;99.90;;;;;;4956275;28;20081;-76
2023/12/21 07:44:48;;;;;;;13.15;2.50;;;9.60;99.90;;;;;;4940319;29;20098;-79
2023/12/21 07:47:14;;;;;;;12.48;2.90;;;9.60;99.90;;;;;;4956628;29;20039;-77
2023/12/21 07:49:40;;;;;;;13.23;2.75;;;9.60;99.90;;;;;;4956227;29;20039;-77
2023/12/21 07:52:05;;;;;;;11.65;2.75;;;9.60;99.90;;;;;;4957524;28;20047;-78
2023/12/21 07:54:31;;;;;;;10.20;2.70;;;9.60;99.90;;;;;;4957357;29;20517;-78
2023/12/21 07:56:57;;;;;;;8.45;1.98;;;9.60;99.90;;;;;;4957531;29;20039;-78
2023/12/21 07:59:24;;;;;;;5.20;2.20;;;9.60;99.90;;;;;;4956389;29;20043;-78
2023/12/21 08:01:49;;;;;;;10.63;3.15;;;9.60;99.90;;;;;;4955801;28;20102;-76
2023/12/21 08:04:16;;;;;;;6.13;1.60;;;9.60;99.90;;;;;;4957430;29;20043;-80
2023/12/21 08:06:42;;;;;;;9.05;1.98;;;9.60;99.90;;;;;;4957414;29;20123;-78
2023/12/21 08:09:13;;;;;;;7.07;2.50;;;9.70;99.90;;;;;;4958232;29;20106;-77
2023/12/21 08:11:39;;;;;;;6.95;1.85;;;9.60;99.90;;;;;;4957349;28;20031;-80
2023/12/21 08:14:05;;;;;;;8.70;2.17;;;9.60;99.90;;;;;;4956402;28;20450;-83
2023/12/21 08:16:31;;;;;;;8.25;2.00;;;9.70;99.90;;;;;;4956207;28;20054;-80
2023/12/21 08:18:56;;;;;;;8.95;1.95;;;9.70;99.90;;;;;;4956449;29;20043;-79
2023/12/21 08:21:22;;;;;;;10.07;2.38;;;9.70;99.90;;;;;;4956997;28;20062;-84
2023/12/21 08:23:50;;;;;;;13.40;2.22;;;9.70;99.90;;;;;;4956672;29;20039;-78
2023/12/21 08:26:16;;;;;;;11.38;2.22;;;9.70;99.90;;;;;;4956234;29;20066;-81
2023/12/21 08:28:42;;;;;;;10.93;2.55;;;9.80;99.90;;;;;;4956971;29;20039;-78
2023/12/21 08:31:08;;;;;;;11.57;3.03;;;9.70;99.90;;;;;;4955598;28;20142;-78
2023/12/21 08:33:35;;;;;;;11.38;2.97;;;9.80;99.90;;;;;;4955749;29;20424;-79
2023/12/21 08:36:01;;;;;;;16.15;2.75;;;9.80;99.90;;;;;;4957001;29;20117;-82
2023/12/21 08:38:26;;;;;;;12.63;2.67;;;9.80;99.90;;;;;;4939354;29;20047;-80
2023/12/21 08:40:52;;;;;;;14.35;2.67;;;9.80;99.90;;;;;;4956798;28;20046;-78
2023/12/21 08:43:18;;;;;;;13.63;2.80;;;9.80;99.90;;;;;;4956630;28;20045;-75
2023/12/21 08:45:44;;;;;;;9.75;2.03;;;9.80;99.90;;;;;;4956406;29;20073;-78
2023/12/21 08:48:09;;;;;;;16.50;2.53;;;9.80;99.90;;;;;;4956429;29;20379;-81
2023/12/21 08:50:35;;;;;;;15.98;2.95;;;9.70;99.90;;;;;;4956632;28;20038;-77
2023/12/21 08:53:02;;;;;;;15.25;3.17;;;9.80;99.90;;;;;;4956585;29;20495;-82
2023/12/21 08:55:29;;;;;;;17.33;3.80;;;9.80;99.90;;;;;;4956464;29;20403;-81
2023/12/21 08:57:56;;;;;;;16.42;2.90;;;9.80;99.90;;;;;;4955162;29;20051;-82
2023/12/21 09:00:22;;;;;;;14.80;2.65;;;9.90;99.90;;;;;;4956052;28;20102;-78
2023/12/21 09:02:47;;;;;;;20.10;3.05;;;9.80;99.90;;;;;;4956316;29;20047;-78
2023/12/21 09:05:13;;;;;;;14.68;2.60;;;9.80;99.90;;;;;;4955124;29;20043;-79
2023/12/21 09:07:39;;;;;;;12.02;2.72;;;9.90;99.90;;;;;;4955051;29;20452;-83
2023/12/21 09:10:06;;;;;;;11.88;1.95;;;9.80;99.90;;;;;;4954818;29;20494;-83
2023/12/21 09:12:32;;;;;;;21.90;3.45;;;9.80;99.90;;;;;;4956066;28;20035;-80
2023/12/21 09:14:57;;;;;;;10.85;2.35;;;9.80;99.90;;;;;;4956200;29;20379;-79
2023/12/21 09:17:23;;;;;;;14.60;3.15;;;9.80;99.90;;;;;;4960220;29;20394;-77
2023/12/21 09:19:49;;;;;;;18.88;2.65;;;9.80;99.90;;;;;;4965160;29;20502;-76
2023/12/21 09:22:14;;;;;;;18.50;3.38;;;9.80;99.90;;;;;;4958886;28;20051;-80
2023/12/21 09:24:40;;;;;;;15.00;2.45;;;9.90;99.90;;;;;;4955024;29;20127;-78
2023/12/21 09:27:06;;;;;;;12.93;2.67;;;9.90;99.90;;;;;;4954945;29;20047;-79
2023/12/21 09:29:32;;;;;;;15.90;3.13;;;9.90;99.90;;;;;;4954475;28;20516;-80
2023/12/21 09:31:59;;;;;;;18.70;3.42;;;9.90;99.90;;;;;;4955985;28;20047;-77
2023/12/21 09:34:24;;;;;;;16.75;3.03;;;10.00;99.90;;;;;;4954314;29;20051;-79
2023/12/21 09:36:53;;;;;;;15.93;2.78;;;10.10;99.90;;;;;;4955769;29;20042;-80
2023/12/21 09:39:19;;;;;;;18.88;4.25;;;10.20;99.90;;;;;;4955826;28;20521;-77
2023/12/21 09:41:44;;;;;;;25.35;3.25;;;10.30;99.90;;;;;;4954111;28;20058;-81
2023/12/21 09:44:16;;;;;;;16.67;2.97;;;10.30;99.90;;;;;;4954325;29;20043;-81
2023/12/21 09:46:48;;;;;;;13.75;3.08;;;10.30;99.90;;;;;;4954510;29;20047;-77
2023/12/21 09:49:14;;;;;;;23.50;3.78;;;10.30;99.90;;;;;;4955232;28;20538;-77
2023/12/21 09:51:41;;;;;;;20.08;3.08;;;10.30;99.90;;;;;;4938101;29;20043;-79
2023/12/21 09:54:09;;;;;;;16.75;3.15;;;10.40;99.90;;;;;;4955476;28;20050;-78
2023/12/21 09:56:35;;;;;;;16.77;3.38;;;10.40;99.90;;;;;;4955495;28;20055;-79
2023/12/21 09:59:01;;;;;;;16.58;2.60;;;10.50;99.90;;;;;;4955436;29;20066;-78
2023/12/21 10:01:27;;;;;;;19.95;3.78;;;10.40;99.90;;;;;;4954105;28;20404;-80
2023/12/21 10:03:53;;;;;;;14.90;3.20;;;10.40;99.90;;;;;;4955049;29;20046;-77
2023/12/21 10:06:19;;;;;;;11.70;2.70;;;10.50;99.90;;;;;;4955430;29;20036;-79
2023/12/21 10:08:44;;;;;;;10.18;2.05;;;10.50;99.90;;;;;;4953812;29;20126;-81
2023/12/21 10:11:10;;;;;;;13.55;3.30;;;10.50;99.90;;;;;;4953841;28;20202;-78
2023/12/21 10:13:37;;;;;;;10.07;2.60;;;10.50;99.90;;;;;;4955520;29;20035;-80
2023/12/21 10:16:03;;;;;;;12.10;2.75;;;10.60;99.90;;;;;;4955372;28;20047;-77
2023/12/21 10:18:30;;;;;;;11.70;2.70;;;10.60;99.90;;;;;;4955783;29;20062;-76
2023/12/21 10:20:56;;;;;;;13.75;2.63;;;10.70;99.90;;;;;;4955180;28;20035;-77
2023/12/21 10:23:24;;;;;;;9.75;1.75;;;10.70;99.90;;;;;;4955109;29;20361;-78
2023/12/21 10:25:50;;;;;;;9.70;1.92;;;10.70;99.90;;;;;;4955136;28;20059;-80
2023/12/21 10:28:15;;;;;;;10.10;2.10;;;10.70;99.90;;;;;;4955256;28;20039;-75
2023/12/21 10:30:41;;;;;;;11.02;2.88;;;10.70;99.90;;;;;;4953731;28;20399;-77
2023/12/21 10:33:09;;;;;;;12.75;2.80;;;10.70;99.90;;;;;;4938015;29;20043;-80
2023/12/21 10:35:37;;;;;;;12.80;2.40;;;10.80;99.90;;;;;;4953878;29;20133;-79
2023/12/21 10:38:03;;;;;;;10.70;1.52;;;10.80;99.90;;;;;;4953862;29;20058;-78
2023/12/21 10:40:29;;;;;;;14.10;2.28;;;10.70;99.90;;;;;;4955591;28;20050;-77
2023/12/21 10:42:56;;;;;;;15.43;2.10;;;10.80;99.90;;;;;;4958396;28;20051;-76
2023/12/21 10:45:22;;;;;;;12.70;1.92;;;10.80;99.90;;;;;;4956928;29;20047;-78
2023/12/21 10:47:57;;;;;;;21.05;2.92;;;10.90;99.90;;;;;;4956868;29;20050;-79
2023/12/21 10:50:25;;;;;;;11.15;2.00;;;10.90;99.90;;;;;;4958539;28;20373;-78
2023/12/21 10:52:52;;;;;;;18.92;2.67;;;11.00;99.90;;;;;;4957205;29;20047;-77
2023/12/21 10:55:18;;;;;;;12.32;2.67;;;11.00;99.90;;;;;;4958739;28;20047;-77
2023/12/21 10:57:46;;;;;;;19.20;3.58;;;11.00;99.90;;;;;;4958656;29;20142;-77
2023/12/21 11:00:15;;;;;;;12.55;2.85;;;11.00;99.90;;;;;;4957339;29;20047;-77
2023/12/21 11:02:45;;;;;;;11.65;2.65;;;11.10;99.90;;;;;;4942104;29;20043;-77
2023/12/21 11:05:19;;;;;;;18.25;2.65;;;11.10;99.90;;;;;;4956859;29;20491;-77
2023/12/21 11:07:50;;;;;;;13.88;2.58;;;11.10;99.90;;;;;;4958522;29;20039;-76
2023/12/21 11:10:23;;;;;;;20.15;3.00;;;11.10;99.90;;;;;;4941045;28;20478;-77
2023/12/21 11:12:49;;;;;;;21.75;3.60;;;11.10;99.90;;;;;;4956899;29;20097;-76
2023/12/21 11:15:18;;;;;;;21.40;3.20;;;11.10;99.90;;;;;;4958330;29;20085;-77
2023/12/21 11:17:49;;;;;;;12.98;2.72;;;11.10;99.90;;;;;;4958305;29;20183;-76
2023/12/21 11:20:20;;;;;;;16.75;3.17;;;11.10;99.90;;;;;;4956609;28;20055;-78
2023/12/21 11:22:46;;;;;;;16.15;3.20;;;11.10;99.90;;;;;;4957627;29;20047;-78
2023/12/21 11:25:12;;;;;;;19.30;3.50;;;11.00;99.90;;;;;;4956609;29;20510;-78
2023/12/21 11:27:41;;;;;;;17.70;3.50;;;11.10;99.90;;;;;;4958185;29;20046;-78
2023/12/21 11:30:14;;;;;;;16.80;3.40;;;11.00;99.90;;;;;;4956515;29;20493;-76
2023/12/21 11:32:42;;;;;;;18.55;3.25;;;11.00;99.90;;;;;;4956736;29;20043;-78
2023/12/21 11:35:23;;;;;;;24.83;4.57;;;11.00;99.90;;;;;;4956542;29;20047;-76
2023/12/21 11:37:56;;;;;;;16.13;3.20;;;11.00;99.90;;;;;;4956471;29;20047;-75
2023/12/21 11:40:23;;;;;;;16.13;3.38;;;11.00;99.90;;;;;;4941605;28;20416;-76
2023/12/21 11:42:52;;;;;;;18.05;3.85;;;11.10;99.90;;;;;;4957567;29;20188;-77
2023/12/21 11:45:26;;;;;;;15.88;3.40;;;11.10;99.90;;;;;;4957758;28;20066;-77
2023/12/21 11:48:00;;;;;;;21.17;3.92;;;11.10;99.90;;;;;;4956302;29;20043;-76
2023/12/21 11:50:30;;;;;;;24.60;4.50;;;11.10;99.90;;;;;;4957946;28;20043;-76
2023/12/21 11:53:11;;;;;;;20.77;3.90;;;11.10;99.90;;;;;;4956172;28;20047;-78
2023/12/21 11:55:39;;;;;;;17.38;2.92;;;11.10;99.90;;;;;;4957449;29;20047;-78
2023/12/21 11:58:16;;;;;;;19.95;4.00;;;11.10;99.90;;;;;;4957235;29;20103;-79
2023/12/21 12:01:00;;;;;;;12.95;2.63;;;11.10;99.90;;;;;;4956069;28;20047;-77
2023/12/21 12:03:27;;;;;;;15.68;3.38;;;11.10;99.90;;;;;;4956281;29;20082;-76
2023/12/21 12:05:59;;;;;;;16.65;3.17;;;11.20;99.90;;;;;;4956932;29;20039;-77
2023/12/21 12:08:25;;;;;;;18.33;2.92;;;11.30;99.90;;;;;;4955967;29;20047;-76
2023/12/21 12:10:54;;;;;;;15.25;2.97;;;11.50;99.90;;;;;;4957327;29;20035;-76
2023/12/21 12:13:23;;;;;;;17.60;3.40;;;11.50;99.90;;;;;;4955815;29;20054;-76
2023/12/21 12:15:52;;;;;;;19.80;3.83;;;11.60;99.90;;;;;;4955100;29;20051;-77
2023/12/21 12:18:21;;;;;;;18.20;3.63;;;11.70;99.90;;;;;;4956046;29;20094;-75
2023/12/21 12:20:48;;;;;;;18.77;3.80;;;11.70;99.90;;;;;;4955816;29;20098;-79
2023/12/21 12:23:15;;;;;;;19.40;3.97;;;11.60;99.90;;;;;;4987949;28;20088;-76
2023/12/21 12:25:41;;;;;;;20.20;4.30;;;11.60;99.90;;;;;;4955423;29;20110;-77
2023/12/21 12:28:08;;;;;;;23.65;4.03;;;11.60;99.90;;;;;;4955727;29;20051;-77
2023/12/21 12:30:35;;;;;;;20.40;4.40;;;11.60;99.90;;;;;;4955411;29;20383;-77
2023/12/21 12:33:03;;;;;;;16.60;2.70;;;11.60;99.90;;;;;;4955547;29;20054;-78
2023/12/21 12:35:32;;;;;;;21.20;3.60;;;11.60;99.90;;;;;;4956927;28;20047;-79
2023/12/21 12:37:58;;;;;;;18.77;3.15;;;11.50;99.90;;;;;;4956647;29;20043;-78
2023/12/21 12:40:24;;;;;;;14.02;3.20;;;11.50;99.90;;;;;;4956399;29;20040;-75
2023/12/21 12:42:51;;;;;;;14.32;3.35;;;11.60;99.90;;;;;;4939396;29;20039;-77
2023/12/21 12:45:18;;;;;;;18.80;3.55;;;11.60;99.90;;;;;;4956385;29;20046;-76
2023/12/21 12:47:44;;;;;;;19.08;3.55;;;11.70;99.90;;;;;;4987552;28;20051;-79
2023/12/21 12:50:11;;;;;;;17.45;3.45;;;11.70;99.90;;;;;;4955393;29;20396;-78
2023/12/21 12:52:41;;;;;;;20.10;3.95;;;11.70;99.90;;;;;;4987363;28;20043;-76
2023/12/21 12:55:16;;;;;;;13.18;2.42;;;11.70;99.90;;;;;;4987436;28;20464;-75
2023/12/21 12:57:47;;;;;;;12.65;2.95;;;11.70;99.90;;;;;;4987329;28;20043;-75
2023/12/21 13:00:16;;;;;;;20.05;4.05;;;11.70;99.90;;;;;;4954892;29;20063;-76
2023/12/21 13:02:42;;;;;;;17.08;2.95;;;11.70;99.90;;;;;;4954919;29;20083;-78
2023/12/21 13:05:09;;;;;;;16.17;3.30;;;11.70;99.90;;;;;;4954396;28;20516;-75
2023/12/21 13:07:35;;;;;;;17.85;3.75;;;11.70;99.90;;;;;;4938793;29;20102;-76
2023/12/21 13:10:01;;;;;;;12.00;3.13;;;11.70;99.90;;;;;;4954975;29;20123;-76
2023/12/21 13:12:26;;;;;;;20.70;3.53;;;11.70;99.90;;;;;;4955823;29;20035;-77
2023/12/21 13:14:52;;;;;;;20.45;3.05;;;11.70;99.90;;;;;;4955915;29;20043;-75
2023/12/21 13:17:18;;;;;;;13.82;3.47;;;11.70;99.90;;;;;;4954864;29;20175;-77
2023/12/21 13:19:44;;;;;;;18.23;3.80;;;11.70;99.90;;;;;;4956047;29;20047;-78
2023/12/21 13:22:14;;;;;;;20.67;4.13;;;11.70;99.90;;;;;;4954816;29;20047;-76
2023/12/21 13:24:40;;;;;;;17.67;4.22;;;11.60;99.90;;;;;;4938518;29;20051;-77
2023/12/21 13:27:06;;;;;;;26.80;3.63;;;11.60;99.90;;;;;;4956176;29;20042;-79
2023/12/21 13:29:33;;;;;;;22.38;3.97;;;11.60;99.90;;;;;;4986932;28;20098;-76
2023/12/21 13:32:00;;;;;;;17.27;3.70;;;11.60;99.90;;;;;;4954255;29;20082;-76
2023/12/21 13:34:27;;;;;;;23.42;3.95;;;11.60;99.90;;;;;;4986645;28;20058;-76
2023/12/21 13:36:53;;;;;;;18.23;3.20;;;11.60;99.90;;;;;;4954533;29;20495;-76
2023/12/21 13:39:20;;;;;;;16.35;3.45;;;11.60;99.90;;;;;;4954270;29;20103;-77
2023/12/21 13:41:46;;;;;;;26.30;3.65;;;11.50;99.90;;;;;;4954099;29;20051;-77
2023/12/21 13:44:12;;;;;;;25.65;3.50;;;11.60;99.90;;;;;;4954125;29;20043;-76
2023/12/21 13:46:38;;;;;;;20.45;3.80;;;11.50;99.90;;;;;;4955931;29;20045;-77
2023/12/21 13:49:04;;;;;;;16.20;2.92;;;11.40;99.90;;;;;;4938474;29;20031;-76
2023/12/21 13:51:30;;;;;;;19.63;3.72;;;11.30;99.90;;;;;;4986695;28;20047;-77
2023/12/21 13:53:56;;;;;;;16.83;3.00;;;11.30;99.90;;;;;;4955582;29;20130;-76
2023/12/21 13:56:22;;;;;;;20.08;4.15;;;11.40;99.90;;;;;;4954392;29;20054;-77
2023/12/21 13:58:47;;;;;;;20.98;3.47;;;11.30;99.90;;;;;;4953946;29;20475;-77
2023/12/21 14:01:13;;;;;;;21.67;5.15;;;11.30;99.90;;;;;;4954101;29;20035;-77
2023/12/21 14:03:39;;;;;;;20.17;4.03;;;11.30;99.90;;;;;;4954274;29;20047;-78
2023/12/21 14:06:05;;;;;;;31.63;5.65;;;11.30;99.90;;;;;;4937893;29;20050;-76
2023/12/21 14:08:31;;;;;;;28.67;4.55;;;11.30;99.90;;;;;;4986167;28;20123;-74
2023/12/21 14:10:56;;;;;;;24.02;3.90;;;11.30;99.90;;;;;;4955575;29;20122;-76
2023/12/21 14:13:22;;;;;;;19.75;3.17;;;11.20;99.90;;;;;;4954152;29;20471;-74
2023/12/21 14:15:48;;;;;;;23.80;4.65;;;11.20;99.90;;;;;;4955279;28;20053;-76
2023/12/21 14:18:13;;;;;;;25.83;4.93;;;11.10;99.90;;;;;;4957957;29;20127;-77
2023/12/21 14:20:39;;;;;;;23.20;4.35;;;11.20;99.90;;;;;;4961428;29;20067;-73
2023/12/21 14:23:05;;;;;;;23.83;4.90;;;11.10;99.90;;;;;;4958755;29;20491;-74
2023/12/21 14:25:30;;;;;;;20.92;4.57;;;11.10;99.90;;;;;;4958298;29;20047;-75
2023/12/21 14:27:56;;;;;;;19.92;3.70;;;11.10;99.90;;;;;;4957916;29;20043;-76
2023/12/21 14:30:22;;;;;;;13.73;2.03;;;11.10;99.90;;;;;;4957745;29;20039;-74
2023/12/21 14:32:47;;;;;;;8.13;1.60;;;10.50;99.90;;;;;;4959023;29;20121;-76
2023/12/21 14:35:13;;;;;;;9.82;1.35;;;9.60;99.90;;;;;;4959107;29;20043;-78
2023/12/21 14:37:38;;;;;;;10.75;1.65;;;9.00;99.90;;;;;;4957676;29;20054;-76
2023/12/21 14:40:05;;;;;;;12.20;2.08;;;8.50;99.90;;;;;;4959054;29;20043;-79
2023/12/21 14:42:31;;;;;;;14.32;1.95;;;8.30;99.90;;;;;;4957256;29;20078;-79
2023/12/21 14:44:57;;;;;;;10.32;1.80;;;8.10;99.90;;;;;;4957361;29;20126;-76
2023/12/21 14:47:22;;;;;;;16.67;2.92;;;7.90;99.90;;;;;;4957408;29;20455;-76
2023/12/21 14:49:48;;;;;;;15.90;2.20;;;7.80;99.90;;;;;;4958554;29;20039;-79
2023/12/21 14:52:14;;;;;;;21.52;3.08;;;7.80;99.90;;;;;;4957354;29;20043;-81
2023/12/21 14:54:40;;;;;;;14.60;2.63;;;7.70;99.90;;;;;;4989798;28;20039;-80
2023/12/21 14:57:05;;;;;;;12.20;2.88;;;7.60;99.90;;;;;;4989582;28;20055;-79
2023/12/21 14:59:32;;;;;;;25.80;3.00;;;7.40;99.90;;;;;;4989760;28;20384;-81
2023/12/21 15:01:57;;;;;;;17.90;3.47;;;7.30;99.90;;;;;;4957128;29;20035;-82
2023/12/21 15:04:23;;;;;;;15.05;2.72;;;7.20;99.90;;;;;;4958525;28;20433;-79
2023/12/21 15:06:50;;;;;;;11.25;2.20;;;7.20;99.90;;;;;;4957494;29;20062;-80
2023/12/21 15:09:16;;;;;;;13.77;2.55;;;7.20;99.90;;;;;;4941186;29;20506;-82
2023/12/21 15:11:42;;;;;;;10.35;2.08;;;7.20;99.90;;;;;;4956965;29;20043;-81
2023/12/21 15:14:09;;;;;;;14.35;2.63;;;7.10;99.90;;;;;;4958633;29;20035;-78
2023/12/21 15:16:37;;;;;;;17.05;2.78;;;7.00;99.90;;;;;;4958901;28;20043;-80
2023/12/21 15:19:03;;;;;;;19.08;3.20;;;7.10;99.90;;;;;;4957527;28;20043;-82
2023/12/21 15:21:29;;;;;;;15.50;2.55;;;7.10;99.90;;;;;;4958410;29;20113;-80
2023/12/21 15:23:55;;;;;;;23.27;3.20;;;7.10;99.90;;;;;;4958552;29;20618;-78
2023/12/21 15:26:20;;;;;;;15.88;3.08;;;7.10;99.90;;;;;;4957666;28;20134;-78
2023/12/21 15:28:46;;;;;;;10.93;2.33;;;7.10;99.90;;;;;;4957072;29;20124;-80
2023/12/21 15:31:12;;;;;;;12.02;1.95;;;6.90;99.90;;;;;;4957954;29;20118;-77
2023/12/21 15:33:37;;;;;;;11.80;2.15;;;6.70;99.90;;;;;;4940649;29;20043;-78
2023/12/21 15:36:04;;;;;;;16.92;1.70;;;6.50;99.90;;;;;;4957664;29;20110;-79
2023/12/21 15:38:29;;;;;;;11.40;2.40;;;6.50;99.90;;;;;;4956742;29;20054;-77
2023/12/21 15:40:55;;;;;;;13.55;2.25;;;6.50;99.90;;;;;;4957597;29;20043;-79
2023/12/21 15:43:20;;;;;;;13.55;2.40;;;6.40;99.90;;;;;;4958265;29;20039;-77
2023/12/21 15:45:46;;;;;;;10.32;1.73;;;6.50;99.90;;;;;;4957757;28;20059;-78
2023/12/21 15:48:12;;;;;;;17.67;2.35;;;6.50;99.90;;;;;;4956593;29;20411;-77
2023/12/21 15:50:39;;;;;;;11.73;2.33;;;6.50;99.90;;;;;;4957751;28;20495;-78
2023/12/21 15:53:05;;;;;;;9.52;2.17;;;6.50;99.90;;;;;;4957558;29;20591;-77
2023/12/21 15:55:32;;;;;;;19.60;3.92;;;6.50;99.90;;;;;;4957383;29;20411;-78
2023/12/21 15:57:58;;;;;;;20.67;4.03;;;6.50;99.90;;;;;;4957633;29;20039;-77
2023/12/21 16:00:25;;;;;;;14.80;2.40;;;6.60;99.90;;;;;;4955830;29;20058;-77
2023/12/21 16:02:52;;;;;;;21.10;3.40;;;6.70;99.90;;;;;;4956257;29;20380;-78
2023/12/21 16:05:20;;;;;;;26.35;3.80;;;6.70;99.90;;;;;;4988655;28;20106;-77
2023/12/21 16:07:46;;;;;;;23.52;3.85;;;6.80;99.90;;;;;;4940897;29;20039;-78
2023/12/21 16:10:12;;;;;;;22.73;4.47;;;6.90;99.90;;;;;;4957109;29;20499;-76
2023/12/21 16:12:41;;;;;;;23.85;4.30;;;7.00;99.90;;;;;;4957610;29;20040;-79
2023/12/21 16:15:07;;;;;;;19.98;3.75;;;7.00;99.90;;;;;;4957651;29;20039;-77
2023/12/21 16:17:33;;;;;;;21.23;3.22;;;7.20;99.90;;;;;;4955845;29;20046;-76
2023/12/21 16:19:58;;;;;;;23.00;3.25;;;7.30;99.90;;;;;;4955847;29;20047;-79
2023/12/21 16:22:24;;;;;;;18.52;2.78;;;7.40;99.90;;;;;;4956990;29;20043;-77
2023/12/21 16:24:51;;;;;;;14.85;3.80;;;7.50;99.90;;;;;;4955664;29;20078;-76
2023/12/21 16:27:17;;;;;;;18.60;3.85;;;7.60;99.90;;;;;;4955983;29;20043;-78
2023/12/21 16:29:43;;;;;;;20.77;3.38;;;7.70;99.90;;;;;;4955882;29;20051;-78
2023/12/21 16:32:09;;;;;;;20.10;2.92;;;7.80;99.90;;;;;;4956742;29;20505;-77
2023/12/21 16:34:40;;;;;;;24.20;4.18;;;7.90;99.90;;;;;;4957128;28;20058;-79
2023/12/21 16:37:06;;;;;;;28.95;4.82;;;8.10;99.90;;;;;;4987927;28;20134;-79
2023/12/21 16:39:32;;;;;;;31.13;4.65;;;8.20;99.90;;;;;;4954902;28;20047;-80